Time,TemperatureF,DewpointF,PressureIn,WindDirection,WindDirectionDegrees,WindSpeedMPH,WindSpeedGustMPH,Humidity,HourlyPrecipIn,Conditions,Clouds,dailyrainin,SoftwareType,DateUTC
2013-08-21 00:01:00,62.8,61.3,30.19,NNE,14,0.0,0.0,95,0.00,,,0.00,meteohub,2013-08-21 04:01:00,
2013-08-21 00:02:00,62.8,61.3,30.19,NNE,14,0.0,0.0,95,0.00,,,0.00,meteohub,2013-08-21 04:02:00,
2013-08-21 00:03:00,62.8,61.3,30.19,NNE,14,0.0,0.0,95,0.00,,,0.00,meteohub,2013-08-21 04:03:00,
2013-08-21 00:04:00,62.6,61.2,30.19,NNE,14,0.0,0.0,95,0.00,,,0.00,meteohub,2013-08-21 04:04:00,
2013-08-21 00:09:00,62.4,61.3,30.19,NNE,14,0.0,0.0,96,0.00,,,0.00,meteohub,2013-08-21 04:09:00,
2013-08-21 00:14:00,62.4,61.3,30.19,NNE,14,0.0,0.0,96,0.00,,,0.00,meteohub,2013-08-21 04:14:00,
2013-08-21 00:20:00,62.2,61.2,30.19,NNE,14,0.0,0.0,96,0.00,,,0.00,meteohub,2013-08-21 04:20:00,
2013-08-21 00:25:00,62.2,61.2,30.19,NNE,14,0.0,0.0,96,0.00,,,0.00,meteohub,2013-08-21 04:25:00,
2013-08-21 00:30:00,62.2,61.2,30.19,NNE,14,0.0,0.0,96,0.00,,,0.00,meteohub,2013-08-21 04:30:00,
2013-08-21 00:36:00,62.1,61.0,30.19,NNE,14,0.0,0.0,96,0.00,,,0.00,meteohub,2013-08-21 04:36:00,
2013-08-21 00:41:00,62.1,61.0,30.19,NNE,14,0.0,0.0,96,0.00,,,0.00,meteohub,2013-08-21 04:41:00,
2013-08-21 00:46:00,62.1,61.0,30.19,NNE,14,0.0,0.0,96,0.00,,,0.00,meteohub,2013-08-21 04:46:00,
2013-08-21 00:51:00,62.1,61.0,30.19,NNE,14,0.0,0.0,96,0.00,,,0.00,meteohub,2013-08-21 04:51:00,
2013-08-21 00:57:00,61.9,60.8,30.19,NNE,14,0.0,0.0,96,0.00,,,0.00,meteohub,2013-08-21 04:57:00,
2013-08-21 01:02:00,61.9,60.8,30.19,NNE,14,0.0,0.0,96,0.00,,,0.00,meteohub,2013-08-21 05:02:00,
2013-08-21 01:07:00,61.7,60.6,30.19,NNE,14,0.0,0.0,96,0.00,,,0.00,meteohub,2013-08-21 05:07:00,
2013-08-21 01:12:00,61.5,60.4,30.19,NNE,14,0.0,0.0,96,0.00,,,0.00,meteohub,2013-08-21 05:12:00,
2013-08-21 01:17:00,61.5,60.4,30.19,NNE,14,0.0,0.0,96,0.00,,,0.00,meteohub,2013-08-21 05:17:00,
2013-08-21 01:23:00,61.5,60.4,30.19,NNE,14,0.0,0.0,96,0.00,,,0.00,meteohub,2013-08-21 05:23:00,
2013-08-21 01:28:00,61.5,60.4,30.19,NNE,14,0.0,0.0,96,0.00,,,0.00,meteohub,2013-08-21 05:28:00,
2013-08-21 01:33:00,61.5,60.4,30.19,NNE,14,0.0,0.0,96,0.00,,,0.00,meteohub,2013-08-21 05:33:00,
2013-08-21 01:38:00,61.3,60.3,30.19,NNE,14,0.0,1.0,96,0.00,,,0.00,meteohub,2013-08-21 05:38:00,
2013-08-21 01:44:00,61.3,60.4,30.19,NNE,14,0.0,1.0,97,0.00,,,0.00,meteohub,2013-08-21 05:44:00,
2013-08-21 01:49:00,61.5,60.6,30.19,NNE,14,0.0,1.0,97,0.00,,,0.00,meteohub,2013-08-21 05:49:00,
2013-08-21 01:54:00,61.5,60.6,30.19,NNE,14,0.0,1.0,97,0.00,,,0.00,meteohub,2013-08-21 05:54:00,
2013-08-21 02:00:00,61.5,60.6,30.19,NNE,14,0.0,1.0,97,0.00,,,0.00,meteohub,2013-08-21 06:00:00,
2013-08-21 02:05:00,61.5,60.6,30.19,NNE,14,0.0,1.0,97,0.00,,,0.00,meteohub,2013-08-21 06:05:00,
2013-08-21 02:10:00,61.3,60.4,30.19,NNE,14,0.0,1.0,97,0.00,,,0.00,meteohub,2013-08-21 06:10:00,
2013-08-21 02:15:00,61.3,60.4,30.19,NNE,14,0.0,3.0,97,0.00,,,0.00,meteohub,2013-08-21 06:15:00,
2013-08-21 02:21:00,61.3,60.4,30.19,NNE,14,0.0,3.0,97,0.00,,,0.00,meteohub,2013-08-21 06:21:00,
2013-08-21 02:26:00,61.3,60.4,30.19,NNE,14,0.0,3.0,97,0.00,,,0.00,meteohub,2013-08-21 06:26:00,
2013-08-21 02:31:00,61.3,60.4,30.19,NNE,14,0.0,1.0,97,0.00,,,0.00,meteohub,2013-08-21 06:31:00,
2013-08-21 02:37:00,61.2,60.3,30.19,NNE,14,0.0,1.0,97,0.00,,,0.00,meteohub,2013-08-21 06:37:00,
2013-08-21 02:42:00,61.2,60.1,30.19,NNE,14,0.0,1.0,96,0.00,,,0.00,meteohub,2013-08-21 06:42:00,
2013-08-21 02:47:00,61.0,59.9,30.19,NNE,14,0.0,1.0,96,0.00,,,0.00,meteohub,2013-08-21 06:47:00,
2013-08-21 02:52:00,60.8,59.7,30.19,NNE,14,0.0,1.0,96,0.00,,,0.00,meteohub,2013-08-21 06:52:00,
2013-08-21 02:57:00,60.6,59.7,30.19,NNE,14,0.0,0.0,97,0.00,,,0.00,meteohub,2013-08-21 06:57:00,
2013-08-21 03:02:00,60.6,59.7,30.19,NNE,14,0.0,0.0,97,0.00,,,0.00,meteohub,2013-08-21 07:02:00,
2013-08-21 03:07:00,60.4,59.5,30.19,NNE,14,0.0,0.0,97,0.00,,,0.00,meteohub,2013-08-21 07:07:00,
2013-08-21 03:13:00,60.4,59.5,30.19,NNE,14,0.0,0.0,97,0.00,,,0.00,meteohub,2013-08-21 07:13:00,
2013-08-21 03:18:00,60.4,59.5,30.19,NNE,14,0.0,0.0,97,0.00,,,0.00,meteohub,2013-08-21 07:18:00,
2013-08-21 03:23:00,60.3,59.4,30.19,NNE,14,0.0,0.0,97,0.00,,,0.00,meteohub,2013-08-21 07:23:00,
2013-08-21 03:28:00,60.1,59.2,30.19,NNE,14,0.0,0.0,97,0.00,,,0.00,meteohub,2013-08-21 07:28:00,
2013-08-21 03:34:00,60.1,59.2,30.19,NNE,14,0.0,0.0,97,0.00,,,0.00,meteohub,2013-08-21 07:34:00,
2013-08-21 03:39:00,59.9,59.0,30.19,NNE,14,0.0,0.0,97,0.00,,,0.00,meteohub,2013-08-21 07:39:00,
2013-08-21 03:44:00,59.7,58.8,30.19,NNE,14,0.0,0.0,97,0.00,,,0.00,meteohub,2013-08-21 07:44:00,
2013-08-21 03:50:00,59.7,58.8,30.19,NNE,14,0.0,0.0,97,0.00,,,0.00,meteohub,2013-08-21 07:50:00,
2013-08-21 03:55:00,59.7,58.8,30.19,NNE,14,0.0,0.0,97,0.00,,,0.00,meteohub,2013-08-21 07:55:00,
2013-08-21 04:00:00,59.7,58.8,30.19,NNE,14,0.0,0.0,97,0.00,,,0.00,meteohub,2013-08-21 08:00:00,
2013-08-21 04:05:00,59.5,58.6,30.19,NNE,14,0.0,0.0,97,0.00,,,0.00,meteohub,2013-08-21 08:05:00,
2013-08-21 04:11:00,59.5,58.6,30.19,NNE,14,0.0,0.0,97,0.00,,,0.00,meteohub,2013-08-21 08:11:00,
2013-08-21 04:16:00,59.5,58.6,30.19,NNE,14,0.0,0.0,97,0.00,,,0.00,meteohub,2013-08-21 08:16:00,
2013-08-21 04:21:00,59.5,58.6,30.19,NNE,14,0.0,0.0,97,0.00,,,0.00,meteohub,2013-08-21 08:21:00,
2013-08-21 04:27:00,59.7,58.8,30.19,NNE,14,0.0,0.0,97,0.00,,,0.00,meteohub,2013-08-21 08:27:00,
2013-08-21 04:32:00,59.7,58.8,30.19,NNE,14,0.0,0.0,97,0.00,,,0.00,meteohub,2013-08-21 08:32:00,
2013-08-21 04:37:00,59.5,58.6,30.19,NNE,14,0.0,0.0,97,0.00,,,0.00,meteohub,2013-08-21 08:37:00,
2013-08-21 04:42:00,59.4,58.5,30.19,NNE,14,0.0,0.0,97,0.00,,,0.00,meteohub,2013-08-21 08:42:00,
2013-08-21 04:47:00,59.4,58.5,30.19,NNE,14,0.0,0.0,97,0.00,,,0.00,meteohub,2013-08-21 08:47:00,
2013-08-21 04:52:00,59.2,58.3,30.19,NNE,14,0.0,0.0,97,0.00,,,0.00,meteohub,2013-08-21 08:52:00,
2013-08-21 04:58:00,59.2,58.3,30.19,NNE,14,0.0,0.0,97,0.00,,,0.00,meteohub,2013-08-21 08:58:00,
2013-08-21 05:03:00,59.2,58.3,30.19,NNE,14,0.0,0.0,97,0.00,,,0.00,meteohub,2013-08-21 09:03:00,
2013-08-21 05:08:00,59.2,58.3,30.19,NNE,14,0.0,0.0,97,0.00,,,0.00,meteohub,2013-08-21 09:08:00,
2013-08-21 05:14:00,59.0,58.1,30.19,NNE,14,0.0,0.0,97,0.00,,,0.00,meteohub,2013-08-21 09:14:00,
2013-08-21 05:19:00,58.8,57.9,30.19,NNE,14,0.0,0.0,97,0.00,,,0.00,meteohub,2013-08-21 09:19:00,
2013-08-21 05:24:00,58.8,57.9,30.19,NNE,14,0.0,0.0,97,0.00,,,0.00,meteohub,2013-08-21 09:24:00,
2013-08-21 05:29:00,59.2,58.3,30.19,NNE,14,0.0,0.0,97,0.00,,,0.00,meteohub,2013-08-21 09:29:00,
2013-08-21 05:35:00,59.2,58.3,30.19,NNE,14,0.0,0.0,97,0.00,,,0.00,meteohub,2013-08-21 09:35:00,
2013-08-21 05:40:00,59.0,58.1,30.19,NNE,14,0.0,2.0,97,0.00,,,0.00,meteohub,2013-08-21 09:40:00,
2013-08-21 05:45:00,58.8,57.9,30.19,NNE,14,0.0,0.0,97,0.00,,,0.00,meteohub,2013-08-21 09:45:00,
2013-08-21 05:51:00,58.8,57.9,30.19,NNE,14,0.0,0.0,97,0.00,,,0.00,meteohub,2013-08-21 09:51:00,
2013-08-21 05:56:00,59.0,58.1,30.19,NNE,14,0.0,0.0,97,0.00,,,0.00,meteohub,2013-08-21 09:56:00,
2013-08-21 06:01:00,59.0,58.1,30.19,NNE,14,0.0,0.0,97,0.00,,,0.00,meteohub,2013-08-21 10:01:00,
2013-08-21 06:06:00,58.8,57.9,30.19,NNE,14,0.0,0.0,97,0.00,,,0.00,meteohub,2013-08-21 10:06:00,
2013-08-21 06:12:00,58.6,57.7,30.19,NNE,14,0.0,0.0,97,0.00,,,0.00,meteohub,2013-08-21 10:12:00,
2013-08-21 06:17:00,58.6,57.7,30.19,NNE,14,0.0,0.0,97,0.00,,,0.00,meteohub,2013-08-21 10:17:00,
2013-08-21 06:22:00,58.6,57.7,30.19,NNE,14,0.0,0.0,97,0.00,,,0.00,meteohub,2013-08-21 10:22:00,
2013-08-21 06:28:00,58.5,57.6,30.20,NNE,14,0.0,0.0,97,0.00,,,0.00,meteohub,2013-08-21 10:28:00,
2013-08-21 06:33:00,58.5,57.6,30.20,NNE,14,0.0,0.0,97,0.00,,,0.00,meteohub,2013-08-21 10:33:00,
2013-08-21 06:38:00,58.6,57.7,30.20,NNE,14,0.0,0.0,97,0.00,,,0.00,meteohub,2013-08-21 10:38:00,
2013-08-21 06:44:00,58.5,57.6,30.20,NNE,14,0.0,1.0,97,0.00,,,0.00,meteohub,2013-08-21 10:44:00,
2013-08-21 06:49:00,58.6,57.7,30.20,NNE,14,0.0,1.0,97,0.00,,,0.00,meteohub,2013-08-21 10:49:00,
2013-08-21 06:54:00,58.5,57.6,30.20,NNE,14,0.0,1.0,97,0.00,,,0.00,meteohub,2013-08-21 10:54:00,
2013-08-21 07:00:00,58.5,57.6,30.21,NNE,14,0.0,1.0,97,0.00,,,0.00,meteohub,2013-08-21 11:00:00,
2013-08-21 07:05:00,58.5,57.6,30.21,NNE,14,0.0,1.0,97,0.00,,,0.00,meteohub,2013-08-21 11:05:00,
2013-08-21 07:10:00,58.5,57.6,30.21,NNE,14,0.0,1.0,97,0.00,,,0.00,meteohub,2013-08-21 11:10:00,
2013-08-21 07:16:00,58.6,57.7,30.21,NNE,14,0.0,1.0,97,0.00,,,0.00,meteohub,2013-08-21 11:16:00,
2013-08-21 07:21:00,58.6,57.7,30.21,NNE,14,0.0,1.0,97,0.00,,,0.00,meteohub,2013-08-21 11:21:00,
2013-08-21 07:26:00,58.6,57.7,30.21,NNE,13,0.0,1.0,97,0.00,,,0.00,meteohub,2013-08-21 11:26:00,
2013-08-21 07:31:00,58.8,58.3,30.21,North,9,0.0,1.0,98,0.00,,,0.00,meteohub,2013-08-21 11:31:00,
2013-08-21 07:37:00,59.2,58.6,30.21,SSW,194,0.0,3.0,98,0.00,,,0.00,meteohub,2013-08-21 11:37:00,
2013-08-21 07:42:00,59.2,58.6,30.22,SSW,194,0.0,3.0,98,0.00,,,0.00,meteohub,2013-08-21 11:42:00,
2013-08-21 07:47:00,59.4,58.8,30.22,SSW,194,0.0,3.0,98,0.00,,,0.00,meteohub,2013-08-21 11:47:00,
2013-08-21 07:52:00,59.4,58.8,30.22,SSW,194,0.0,3.0,98,0.00,,,0.00,meteohub,2013-08-21 11:52:00,
2013-08-21 07:57:00,59.5,59.0,30.22,SSW,194,0.0,2.0,98,0.00,,,0.00,meteohub,2013-08-21 11:57:00,
2013-08-21 08:02:00,59.7,59.2,30.22,SSW,194,0.0,2.0,98,0.00,,,0.00,meteohub,2013-08-21 12:02:00,
2013-08-21 08:07:00,59.9,59.4,30.22,SSW,202,1.0,3.0,98,0.00,,,0.00,meteohub,2013-08-21 12:07:00,
2013-08-21 08:12:00,60.1,59.5,30.22,SSW,202,1.0,3.0,98,0.00,,,0.00,meteohub,2013-08-21 12:12:00,
2013-08-21 08:17:00,60.3,59.7,30.22,SSW,202,1.0,4.0,98,0.00,,,0.00,meteohub,2013-08-21 12:17:00,
2013-08-21 08:22:00,60.4,59.9,30.22,SSW,202,0.0,4.0,98,0.00,,,0.00,meteohub,2013-08-21 12:22:00,
2013-08-21 08:27:00,61.0,60.4,30.22,SSW,202,0.0,3.0,98,0.00,,,0.00,meteohub,2013-08-21 12:27:00,
2013-08-21 08:32:00,61.3,60.8,30.22,SSW,202,0.0,3.0,98,0.00,,,0.00,meteohub,2013-08-21 12:32:00,
2013-08-21 08:37:00,61.7,61.2,30.22,SSW,202,0.0,3.0,98,0.00,,,0.00,meteohub,2013-08-21 12:37:00,
2013-08-21 08:43:00,62.1,61.5,30.22,SSW,202,4.0,4.0,98,0.00,,,0.00,meteohub,2013-08-21 12:43:00,
2013-08-21 08:48:00,62.2,61.7,30.22,SSW,202,2.0,6.0,98,0.00,,,0.00,meteohub,2013-08-21 12:48:00,
2013-08-21 08:53:00,62.8,62.2,30.22,SSW,202,3.0,6.0,98,0.00,,,0.00,meteohub,2013-08-21 12:53:00,
2013-08-21 08:58:00,63.1,62.6,30.23,SSW,201,5.0,6.0,98,0.00,,,0.00,meteohub,2013-08-21 12:58:00,
2013-08-21 09:04:00,63.3,62.8,30.23,SSW,198,4.0,7.0,98,0.00,,,0.00,meteohub,2013-08-21 13:04:00,
2013-08-21 09:09:00,63.9,63.0,30.23,SSW,208,1.0,7.0,97,0.00,,,0.00,meteohub,2013-08-21 13:09:00,
2013-08-21 09:14:00,64.0,63.0,30.23,SSW,202,4.0,7.0,96,0.00,,,0.00,meteohub,2013-08-21 13:14:00,
2013-08-21 09:19:00,64.8,63.7,30.23,SSW,201,3.0,7.0,96,0.00,,,0.00,meteohub,2013-08-21 13:19:00,
2013-08-21 09:25:00,65.1,63.7,30.23,SSW,201,2.0,7.0,95,0.00,,,0.00,meteohub,2013-08-21 13:25:00,
2013-08-21 09:30:00,65.8,64.0,30.23,SSW,201,0.0,7.0,94,0.00,,,0.00,meteohub,2013-08-21 13:30:00,
2013-08-21 09:35:00,66.4,64.2,30.23,South,181,1.0,7.0,93,0.00,,,0.00,meteohub,2013-08-21 13:35:00,
2013-08-21 09:41:00,66.7,64.4,30.23,South,190,2.0,7.0,92,0.00,,,0.00,meteohub,2013-08-21 13:41:00,
2013-08-21 09:46:00,67.5,64.4,30.22,SSW,202,3.0,6.0,90,0.00,,,0.00,meteohub,2013-08-21 13:46:00,
2013-08-21 09:51:00,68.0,64.6,30.22,SSW,209,3.0,6.0,89,0.00,,,0.00,meteohub,2013-08-21 13:51:00,
2013-08-21 09:56:00,68.7,64.9,30.22,SSW,200,4.0,6.0,88,0.00,,,0.00,meteohub,2013-08-21 13:56:00,
2013-08-21 10:02:00,69.4,65.5,30.22,SSW,203,1.0,6.0,87,0.00,,,0.00,meteohub,2013-08-21 14:02:00,
2013-08-21 10:07:00,70.0,66.0,30.22,SSW,203,3.0,5.0,87,0.00,,,0.00,meteohub,2013-08-21 14:07:00,
2013-08-21 10:12:00,70.3,66.0,30.22,SSW,203,2.0,5.0,86,0.00,,,0.00,meteohub,2013-08-21 14:12:00,
2013-08-21 10:17:00,70.9,66.2,30.22,SSW,203,1.0,5.0,85,0.00,,,0.00,meteohub,2013-08-21 14:17:00,
2013-08-21 10:22:00,71.2,66.2,30.22,SSW,203,1.0,5.0,84,0.00,,,0.00,meteohub,2013-08-21 14:22:00,
2013-08-21 10:27:00,71.8,66.4,30.22,SSW,203,3.0,6.0,83,0.00,,,0.00,meteohub,2013-08-21 14:27:00,
2013-08-21 10:32:00,72.3,66.9,30.22,SSW,203,1.0,6.0,83,0.00,,,0.00,meteohub,2013-08-21 14:32:00,
2013-08-21 10:37:00,73.0,67.3,30.22,SW,214,4.0,6.0,82,0.00,,,0.00,meteohub,2013-08-21 14:37:00,
2013-08-21 10:42:00,73.6,68.2,30.22,South,191,3.0,6.0,83,0.00,,,0.00,meteohub,2013-08-21 14:42:00,
2013-08-21 10:47:00,74.1,68.0,30.22,South,188,1.0,6.0,81,0.00,,,0.00,meteohub,2013-08-21 14:47:00,
2013-08-21 10:52:00,74.5,68.2,30.22,SSW,205,0.0,6.0,81,0.00,,,0.00,meteohub,2013-08-21 14:52:00,
2013-08-21 10:57:00,74.8,67.8,30.21,SSW,206,5.0,6.0,79,0.00,,,0.00,meteohub,2013-08-21 14:57:00,
2013-08-21 11:02:00,75.4,68.4,30.21,SSW,192,0.0,6.0,79,0.00,,,0.00,meteohub,2013-08-21 15:02:00,
2013-08-21 11:07:00,75.7,68.0,30.21,SSW,208,2.0,5.0,77,0.00,,,0.00,meteohub,2013-08-21 15:07:00,
2013-08-21 11:12:00,76.3,68.5,30.21,SSW,208,0.0,5.0,77,0.00,,,0.00,meteohub,2013-08-21 15:12:00,
2013-08-21 11:17:00,76.8,68.7,30.21,SSW,208,2.0,5.0,76,0.00,,,0.00,meteohub,2013-08-21 15:17:00,
2013-08-21 11:22:00,77.2,68.7,30.21,SSW,204,4.0,5.0,75,0.00,,,0.00,meteohub,2013-08-21 15:22:00,
2013-08-21 11:27:00,77.5,69.4,30.21,SSW,204,1.0,5.0,76,0.00,,,0.00,meteohub,2013-08-21 15:27:00,
2013-08-21 11:32:00,78.1,68.7,30.21,SW,214,1.0,5.0,73,0.00,,,0.00,meteohub,2013-08-21 15:32:00,
2013-08-21 11:37:00,78.3,68.0,30.21,SSW,204,0.0,7.0,71,0.00,,,0.00,meteohub,2013-08-21 15:37:00,
2013-08-21 11:42:00,78.4,68.2,30.21,SSW,206,1.0,7.0,71,0.00,,,0.00,meteohub,2013-08-21 15:42:00,
2013-08-21 11:47:00,78.6,68.0,30.20,SSW,209,3.0,7.0,70,0.00,,,0.00,meteohub,2013-08-21 15:47:00,
2013-08-21 11:52:00,79.0,68.7,30.20,South,171,0.0,7.0,71,0.00,,,0.00,meteohub,2013-08-21 15:52:00,
2013-08-21 11:57:00,79.2,68.2,30.20,SSW,205,2.0,7.0,69,0.00,,,0.00,meteohub,2013-08-21 15:57:00,
2013-08-21 12:03:00,79.3,68.7,30.20,SSW,192,0.0,7.0,70,0.00,,,0.00,meteohub,2013-08-21 16:03:00,
2013-08-21 12:08:00,79.5,67.1,30.20,SW,227,4.0,8.0,66,0.00,,,0.00,meteohub,2013-08-21 16:08:00,
2013-08-21 12:13:00,79.5,65.8,30.20,SSW,200,8.0,9.0,63,0.00,,,0.00,meteohub,2013-08-21 16:13:00,
2013-08-21 12:19:00,79.3,66.0,30.20,South,190,2.0,9.0,64,0.00,,,0.00,meteohub,2013-08-21 16:19:00,
2013-08-21 12:24:00,79.7,66.4,30.20,SSW,211,1.0,9.0,64,0.00,,,0.00,meteohub,2013-08-21 16:24:00,
2013-08-21 12:29:00,79.9,65.3,30.20,SSW,211,6.0,10.0,61,0.00,,,0.00,meteohub,2013-08-21 16:29:00,
2013-08-21 12:34:00,80.1,66.7,30.20,South,187,4.0,9.0,64,0.00,,,0.00,meteohub,2013-08-21 16:34:00,
2013-08-21 12:40:00,80.1,65.5,30.20,SSW,202,7.0,9.0,61,0.00,,,0.00,meteohub,2013-08-21 16:40:00,
2013-08-21 12:45:00,80.2,66.0,30.20,SSW,200,3.0,9.0,62,0.00,,,0.00,meteohub,2013-08-21 16:45:00,
2013-08-21 12:50:00,80.4,64.2,30.19,SSW,202,2.0,9.0,58,0.00,,,0.00,meteohub,2013-08-21 16:50:00,
2013-08-21 12:56:00,80.2,64.6,30.19,SSW,196,1.0,10.0,59,0.00,,,0.00,meteohub,2013-08-21 16:56:00,
2013-08-21 13:01:00,80.6,65.8,30.19,SW,223,0.0,10.0,61,0.00,,,0.00,meteohub,2013-08-21 17:01:00,
2013-08-21 13:06:00,81.1,67.8,30.19,SW,215,0.0,10.0,64,0.00,,,0.00,meteohub,2013-08-21 17:06:00,
2013-08-21 13:11:00,81.1,66.4,30.19,SW,222,1.0,10.0,61,0.00,,,0.00,meteohub,2013-08-21 17:11:00,
2013-08-21 13:16:00,81.0,68.0,30.19,SW,222,0.0,8.0,65,0.00,,,0.00,meteohub,2013-08-21 17:16:00,
2013-08-21 13:22:00,80.8,65.7,30.19,SSW,198,2.0,8.0,60,0.00,,,0.00,meteohub,2013-08-21 17:22:00,
2013-08-21 13:27:00,80.2,65.1,30.19,SSW,202,4.0,9.0,60,0.00,,,0.00,meteohub,2013-08-21 17:27:00,
2013-08-21 13:32:00,80.2,66.0,30.19,SSW,202,0.0,9.0,62,0.00,,,0.00,meteohub,2013-08-21 17:32:00,
2013-08-21 13:38:00,80.8,65.7,30.18,South,184,0.0,8.0,60,0.00,,,0.00,meteohub,2013-08-21 17:38:00,
2013-08-21 13:43:00,80.4,65.3,30.18,SSW,206,0.0,8.0,60,0.00,,,0.00,meteohub,2013-08-21 17:43:00,
2013-08-21 13:48:00,80.2,68.4,30.18,SSW,206,0.0,8.0,67,0.00,,,0.00,meteohub,2013-08-21 17:48:00,
2013-08-21 13:53:00,80.2,66.0,30.18,SSW,206,0.0,8.0,62,0.00,,,0.00,meteohub,2013-08-21 17:53:00,
2013-08-21 13:59:00,80.4,66.7,30.18,SSW,206,0.0,3.0,63,0.00,,,0.00,meteohub,2013-08-21 17:59:00,
2013-08-21 14:04:00,81.0,67.1,30.17,SSW,206,2.0,0.0,63,0.00,,,0.00,meteohub,2013-08-21 18:04:00,
2013-08-21 14:09:00,81.5,65.8,30.17,SE,146,0.0,0.0,59,0.00,,,0.00,meteohub,2013-08-21 18:09:00,
2013-08-21 14:15:00,81.9,65.7,30.17,SW,215,0.0,10.0,58,0.00,,,0.00,meteohub,2013-08-21 18:15:00,
2013-08-21 14:20:00,81.7,64.4,30.17,SSW,204,0.0,10.0,56,0.00,,,0.00,meteohub,2013-08-21 18:20:00,
2013-08-21 14:25:00,81.9,64.0,30.17,SSW,204,0.0,10.0,55,0.00,,,0.00,meteohub,2013-08-21 18:25:00,
2013-08-21 14:30:00,82.2,66.0,30.17,SSE,162,0.0,10.0,58,0.00,,,0.00,meteohub,2013-08-21 18:30:00,
2013-08-21 14:36:00,82.0,64.8,30.17,SSW,202,6.0,9.0,56,0.00,,,0.00,meteohub,2013-08-21 18:36:00,
2013-08-21 14:41:00,81.9,63.5,30.16,SSW,211,2.0,9.0,54,0.00,,,0.00,meteohub,2013-08-21 18:41:00,
2013-08-21 14:46:00,82.0,64.8,30.16,South,180,4.0,11.0,56,0.00,,,0.00,meteohub,2013-08-21 18:46:00,
2013-08-21 14:52:00,82.0,64.8,30.15,SSW,202,7.0,11.0,56,0.00,,,0.00,meteohub,2013-08-21 18:52:00,
2013-08-21 14:57:00,82.0,65.3,30.15,SSW,196,0.0,8.0,57,0.00,,,0.00,meteohub,2013-08-21 18:57:00,
2013-08-21 15:02:00,82.4,67.6,30.15,South,183,1.0,8.0,61,0.00,,,0.00,meteohub,2013-08-21 19:02:00,
2013-08-21 15:07:00,82.6,66.7,30.14,WSW,237,0.0,8.0,59,0.00,,,0.00,meteohub,2013-08-21 19:07:00,
2013-08-21 15:12:00,82.4,64.0,30.14,SSE,165,0.0,8.0,54,0.00,,,0.00,meteohub,2013-08-21 19:12:00,
2013-08-21 15:17:00,82.2,64.4,30.14,SE,142,1.0,7.0,55,0.00,,,0.00,meteohub,2013-08-21 19:17:00,
2013-08-21 15:22:00,82.2,65.5,30.14,SW,221,3.0,7.0,57,0.00,,,0.00,meteohub,2013-08-21 19:22:00,
2013-08-21 15:27:00,82.2,63.3,30.14,SSW,197,4.0,7.0,53,0.00,,,0.00,meteohub,2013-08-21 19:27:00,
2013-08-21 15:32:00,82.0,64.2,30.14,SSW,206,8.0,8.0,55,0.00,,,0.00,meteohub,2013-08-21 19:32:00,
2013-08-21 15:37:00,82.0,65.3,30.14,South,176,2.0,8.0,57,0.00,,,0.00,meteohub,2013-08-21 19:37:00,
2013-08-21 15:42:00,82.0,66.4,30.13,West,281,1.0,8.0,59,0.00,,,0.00,meteohub,2013-08-21 19:42:00,
2013-08-21 15:47:00,82.0,65.3,30.13,WSW,249,0.0,8.0,57,0.00,,,0.00,meteohub,2013-08-21 19:47:00,
2013-08-21 15:52:00,82.2,64.4,30.13,SW,230,0.0,8.0,55,0.00,,,0.00,meteohub,2013-08-21 19:52:00,
2013-08-21 15:57:00,82.6,64.8,30.13,SW,222,0.0,7.0,55,0.00,,,0.00,meteohub,2013-08-21 19:57:00,
2013-08-21 16:03:00,82.4,64.6,30.13,SSW,194,1.0,7.0,55,0.00,,,0.00,meteohub,2013-08-21 20:03:00,
2013-08-21 16:08:00,82.4,63.5,30.13,South,191,1.0,5.0,53,0.00,,,0.00,meteohub,2013-08-21 20:08:00,
2013-08-21 16:13:00,82.2,64.4,30.13,SSW,196,1.0,6.0,55,0.00,,,0.00,meteohub,2013-08-21 20:13:00,
2013-08-21 16:19:00,82.2,63.3,30.13,SSW,198,2.0,6.0,53,0.00,,,0.00,meteohub,2013-08-21 20:19:00,
2013-08-21 16:24:00,82.2,63.3,30.12,South,184,0.0,8.0,53,0.00,,,0.00,meteohub,2013-08-21 20:24:00,
2013-08-21 16:29:00,82.2,63.9,30.12,SSW,196,4.0,8.0,54,0.00,,,0.00,meteohub,2013-08-21 20:29:00,
2013-08-21 16:35:00,82.2,62.8,30.12,SSW,209,2.0,7.0,52,0.00,,,0.00,meteohub,2013-08-21 20:35:00,
2013-08-21 16:40:00,82.4,63.0,30.12,SW,214,0.0,6.0,52,0.00,,,0.00,meteohub,2013-08-21 20:40:00,
2013-08-21 16:45:00,82.6,64.2,30.11,SSW,204,0.0,6.0,54,0.00,,,0.00,meteohub,2013-08-21 20:45:00,
2013-08-21 16:50:00,82.6,64.8,30.11,SSW,200,0.0,6.0,55,0.00,,,0.00,meteohub,2013-08-21 20:50:00,
2013-08-21 16:56:00,82.6,64.2,30.12,SSW,200,0.0,6.0,54,0.00,,,0.00,meteohub,2013-08-21 20:56:00,
2013-08-21 17:01:00,82.6,65.8,30.11,SSW,201,2.0,6.0,57,0.00,,,0.00,meteohub,2013-08-21 21:01:00,
2013-08-21 17:06:00,82.2,64.4,30.11,SSW,203,2.0,4.0,55,0.00,,,0.00,meteohub,2013-08-21 21:06:00,
2013-08-21 17:12:00,81.9,64.6,30.11,WSW,244,1.0,4.0,56,0.00,,,0.00,meteohub,2013-08-21 21:12:00,
2013-08-21 17:17:00,81.9,65.1,30.11,WSW,244,0.0,7.0,57,0.00,,,0.00,meteohub,2013-08-21 21:17:00,
2013-08-21 17:22:00,81.5,65.3,30.11,SW,214,0.0,7.0,58,0.00,,,0.00,meteohub,2013-08-21 21:22:00,
2013-08-21 17:27:00,81.3,65.7,30.11,South,190,3.0,5.0,59,0.00,,,0.00,meteohub,2013-08-21 21:27:00,
2013-08-21 17:33:00,81.1,66.4,30.11,SSW,196,0.0,5.0,61,0.00,,,0.00,meteohub,2013-08-21 21:33:00,
2013-08-21 17:38:00,81.0,67.1,30.11,SSW,196,0.0,5.0,63,0.00,,,0.00,meteohub,2013-08-21 21:38:00,
2013-08-21 17:43:00,80.6,67.8,30.12,SSW,196,0.0,5.0,65,0.00,,,0.00,meteohub,2013-08-21 21:43:00,
2013-08-21 17:49:00,80.2,66.9,30.11,SSW,196,0.0,4.0,64,0.00,,,0.00,meteohub,2013-08-21 21:49:00,
2013-08-21 17:54:00,80.2,68.7,30.11,SSW,196,0.0,1.0,68,0.00,,,0.00,meteohub,2013-08-21 21:54:00,
2013-08-21 17:59:00,80.1,68.9,30.11,SSW,196,0.0,1.0,69,0.00,,,0.00,meteohub,2013-08-21 21:59:00,
2013-08-21 18:04:00,79.9,69.3,30.10,SSW,196,0.0,1.0,70,0.00,,,0.00,meteohub,2013-08-21 22:04:00,
2013-08-21 18:10:00,79.5,68.9,30.10,SSW,196,0.0,1.0,70,0.00,,,0.00,meteohub,2013-08-21 22:10:00,
2013-08-21 18:15:00,79.3,68.4,30.10,SSW,196,0.0,0.0,69,0.00,,,0.00,meteohub,2013-08-21 22:15:00,
2013-08-21 18:20:00,79.3,69.4,30.10,SSW,196,0.0,0.0,72,0.00,,,0.00,meteohub,2013-08-21 22:20:00,
2013-08-21 18:26:00,79.2,69.8,30.10,SSW,196,0.0,1.0,73,0.00,,,0.00,meteohub,2013-08-21 22:26:00,
2013-08-21 18:31:00,78.8,70.5,30.10,SSW,196,0.0,1.0,76,0.00,,,0.00,meteohub,2013-08-21 22:31:00,
2013-08-21 18:36:00,78.4,69.1,30.09,SSW,196,0.0,1.0,73,0.00,,,0.00,meteohub,2013-08-21 22:36:00,
2013-08-21 18:42:00,78.4,69.1,30.09,SSW,196,0.0,1.0,73,0.00,,,0.00,meteohub,2013-08-21 22:42:00,
2013-08-21 18:47:00,78.3,68.0,30.09,SSW,196,0.0,1.0,71,0.00,,,0.00,meteohub,2013-08-21 22:47:00,
2013-08-21 18:52:00,78.3,68.5,30.09,SSW,196,0.0,1.0,72,0.00,,,0.00,meteohub,2013-08-21 22:52:00,
2013-08-21 18:57:00,78.3,69.3,30.09,SSW,196,0.0,0.0,74,0.00,,,0.00,meteohub,2013-08-21 22:57:00,
2013-08-21 19:03:00,78.1,70.0,30.09,SSW,196,0.0,0.0,76,0.00,,,0.00,meteohub,2013-08-21 23:03:00,
2013-08-21 19:08:00,77.9,70.2,30.09,SSW,196,0.0,0.0,77,0.00,,,0.00,meteohub,2013-08-21 23:08:00,
2013-08-21 19:13:00,77.5,69.8,30.09,SSW,196,0.0,0.0,77,0.00,,,0.00,meteohub,2013-08-21 23:13:00,
2013-08-21 19:19:00,77.4,69.3,30.09,SSW,196,0.0,0.0,76,0.00,,,0.00,meteohub,2013-08-21 23:19:00,
2013-08-21 19:24:00,77.2,69.4,30.09,SSW,196,0.0,0.0,77,0.00,,,0.00,meteohub,2013-08-21 23:24:00,
2013-08-21 19:29:00,76.8,68.7,30.08,SSW,196,0.0,0.0,76,0.00,,,0.00,meteohub,2013-08-21 23:29:00,
2013-08-21 19:34:00,76.5,68.4,30.08,SSW,196,0.0,0.0,76,0.00,,,0.00,meteohub,2013-08-21 23:34:00,
2013-08-21 19:40:00,76.3,68.5,30.08,SSW,196,0.0,0.0,77,0.00,,,0.00,meteohub,2013-08-21 23:40:00,
2013-08-21 19:45:00,75.9,68.9,30.08,SSW,196,0.0,0.0,79,0.00,,,0.00,meteohub,2013-08-21 23:45:00,
2013-08-21 19:50:00,75.7,69.8,30.08,SSW,196,0.0,0.0,82,0.00,,,0.00,meteohub,2013-08-21 23:50:00,
2013-08-21 19:55:00,75.6,69.6,30.08,SSW,196,0.0,0.0,82,0.00,,,0.00,meteohub,2013-08-21 23:55:00,
2013-08-21 20:01:00,75.4,69.4,30.08,SSW,196,0.0,0.0,82,0.00,,,0.00,meteohub,2013-08-22 00:01:00,
2013-08-21 20:06:00,75.0,69.4,30.08,SSW,196,0.0,0.0,83,0.00,,,0.00,meteohub,2013-08-22 00:06:00,
2013-08-21 20:11:00,74.8,69.6,30.08,SSW,196,0.0,0.0,84,0.00,,,0.00,meteohub,2013-08-22 00:11:00,
2013-08-21 20:17:00,74.5,69.3,30.08,SSW,196,0.0,0.0,84,0.00,,,0.00,meteohub,2013-08-22 00:17:00,
2013-08-21 20:22:00,74.3,69.8,30.07,SSW,196,0.0,0.0,86,0.00,,,0.00,meteohub,2013-08-22 00:22:00,
2013-08-21 20:27:00,73.9,69.4,30.08,SSW,196,0.0,0.0,86,0.00,,,0.00,meteohub,2013-08-22 00:27:00,
2013-08-21 20:32:00,73.6,69.4,30.08,SSW,196,0.0,0.0,87,0.00,,,0.00,meteohub,2013-08-22 00:32:00,
2013-08-21 20:37:00,73.2,69.1,30.07,SSW,196,0.0,0.0,87,0.00,,,0.00,meteohub,2013-08-22 00:37:00,
2013-08-21 20:42:00,72.9,69.1,30.07,SSW,196,0.0,0.0,88,0.00,,,0.00,meteohub,2013-08-22 00:42:00,
2013-08-21 20:47:00,72.7,69.3,30.07,SSW,196,0.0,0.0,89,0.00,,,0.00,meteohub,2013-08-22 00:47:00,
2013-08-21 20:52:00,72.3,68.9,30.07,SSW,196,0.0,0.0,89,0.00,,,0.00,meteohub,2013-08-22 00:52:00,
2013-08-21 20:57:00,72.1,69.1,30.08,SSW,196,0.0,0.0,90,0.00,,,0.00,meteohub,2013-08-22 00:57:00,
2013-08-21 21:02:00,72.0,68.9,30.08,SSW,196,0.0,0.0,90,0.00,,,0.00,meteohub,2013-08-22 01:02:00,
2013-08-21 21:07:00,71.4,68.7,30.08,SSW,196,0.0,0.0,91,0.00,,,0.00,meteohub,2013-08-22 01:07:00,
2013-08-21 21:12:00,71.2,68.5,30.08,SSW,196,0.0,0.0,91,0.00,,,0.00,meteohub,2013-08-22 01:12:00,
2013-08-21 21:18:00,71.1,68.5,30.08,SSW,196,0.0,0.0,92,0.00,,,0.00,meteohub,2013-08-22 01:18:00,
2013-08-21 21:23:00,70.9,68.4,30.09,SSW,196,0.0,0.0,92,0.00,,,0.00,meteohub,2013-08-22 01:23:00,
2013-08-21 21:28:00,70.7,68.2,30.09,SSW,196,0.0,0.0,92,0.00,,,0.00,meteohub,2013-08-22 01:28:00,
2013-08-21 21:34:00,70.5,68.0,30.09,SSW,196,0.0,0.0,92,0.00,,,0.00,meteohub,2013-08-22 01:34:00,
2013-08-21 21:39:00,70.3,68.2,30.09,SSW,196,0.0,0.0,93,0.00,,,0.00,meteohub,2013-08-22 01:39:00,
2013-08-21 21:44:00,70.3,68.5,30.09,SSW,196,0.0,0.0,94,0.00,,,0.00,meteohub,2013-08-22 01:44:00,
2013-08-21 21:49:00,70.3,68.5,30.09,SSW,196,0.0,0.0,94,0.00,,,0.00,meteohub,2013-08-22 01:49:00,
2013-08-21 21:55:00,70.2,68.4,30.09,SSW,196,0.0,0.0,94,0.00,,,0.00,meteohub,2013-08-22 01:55:00,
2013-08-21 22:00:00,70.2,68.4,30.09,SSW,196,0.0,0.0,94,0.00,,,0.00,meteohub,2013-08-22 02:00:00,
2013-08-21 22:05:00,69.8,68.0,30.09,SSW,196,0.0,0.0,94,0.00,,,0.00,meteohub,2013-08-22 02:05:00,
2013-08-21 22:11:00,69.6,67.8,30.09,SSW,196,0.0,0.0,94,0.00,,,0.00,meteohub,2013-08-22 02:11:00,
2013-08-21 22:16:00,69.4,67.3,30.09,SSW,196,0.0,0.0,93,0.00,,,0.00,meteohub,2013-08-22 02:16:00,
2013-08-21 22:21:00,69.3,67.1,30.09,SSW,196,0.0,0.0,93,0.00,,,0.00,meteohub,2013-08-22 02:21:00,
2013-08-21 22:26:00,69.1,67.3,30.09,SSW,196,0.0,0.0,94,0.00,,,0.00,meteohub,2013-08-22 02:26:00,
2013-08-21 22:32:00,68.7,66.9,30.09,SSW,196,0.0,0.0,94,0.00,,,0.00,meteohub,2013-08-22 02:32:00,
2013-08-21 22:37:00,68.7,66.9,30.09,SSW,196,0.0,0.0,94,0.00,,,0.00,meteohub,2013-08-22 02:37:00,
2013-08-21 22:42:00,68.5,66.7,30.09,SSW,196,0.0,0.0,94,0.00,,,0.00,meteohub,2013-08-22 02:42:00,
2013-08-21 22:47:00,68.5,67.1,30.09,SSW,196,0.0,0.0,95,0.00,,,0.00,meteohub,2013-08-22 02:47:00,
2013-08-21 22:52:00,68.7,67.3,30.08,SSW,196,2.0,0.0,95,0.00,,,0.00,meteohub,2013-08-22 02:52:00,
2013-08-21 22:57:00,68.7,66.9,30.09,SSW,197,0.0,6.0,94,0.00,,,0.00,meteohub,2013-08-22 02:57:00,
2013-08-21 23:02:00,68.5,66.7,30.10,NW,316,0.0,6.0,94,0.00,,,0.00,meteohub,2013-08-22 03:02:00,
2013-08-21 23:08:00,68.5,66.4,30.10,NW,316,0.0,6.0,93,0.00,,,0.00,meteohub,2013-08-22 03:08:00,
2013-08-21 23:13:00,68.4,66.2,30.09,NW,316,0.0,2.0,93,0.00,,,0.00,meteohub,2013-08-22 03:13:00,
2013-08-21 23:18:00,68.4,66.6,30.10,NW,316,0.0,0.0,94,0.00,,,0.00,meteohub,2013-08-22 03:18:00,
2013-08-21 23:24:00,68.4,66.6,30.10,NW,316,0.0,0.0,94,0.00,,,0.00,meteohub,2013-08-22 03:24:00,
2013-08-21 23:29:00,68.2,66.4,30.10,NW,316,0.0,0.0,94,0.00,,,0.00,meteohub,2013-08-22 03:29:00,
2013-08-21 23:34:00,68.2,66.4,30.10,NW,316,0.0,0.0,94,0.00,,,0.00,meteohub,2013-08-22 03:34:00,
2013-08-21 23:40:00,67.8,65.7,30.09,NW,316,0.0,0.0,93,0.00,,,0.00,meteohub,2013-08-22 03:40:00,
2013-08-21 23:45:00,67.6,65.8,30.10,NW,316,0.0,0.0,94,0.00,,,0.00,meteohub,2013-08-22 03:45:00,
2013-08-21 23:50:00,67.5,65.7,30.10,NW,316,0.0,0.0,94,0.00,,,0.00,meteohub,2013-08-22 03:50:00,
2013-08-21 23:55:00,67.5,65.7,30.10,NW,316,0.0,0.0,94,0.00,,,0.00,meteohub,2013-08-22 03:55:00,